sensor_id;sensor_type;location;lat;lon;timestamp;P1;durP1;ratioP1;P2;durP2;ratioP2
52650;SDS011;38537;47.226;39.702;2022-07-01T00:01:46;7.00;;;3.00;;
52650;SDS011;38537;47.226;39.702;2022-07-01T00:04:16;5.90;;;2.80;;
52650;SDS011;38537;47.226;39.702;2022-07-01T00:06:43;7.93;;;3.13;;
52650;SDS011;38537;47.226;39.702;2022-07-01T00:09:10;7.93;;;3.28;;
52650;SDS011;38537;47.226;39.702;2022-07-01T00:11:38;10.25;;;3.33;;
52650;SDS011;38537;47.226;39.702;2022-07-01T00:14:05;7.57;;;3.25;;
52650;SDS011;38537;47.226;39.702;2022-07-01T00:16:32;7.80;;;3.22;;
52650;SDS011;38537;47.226;39.702;2022-07-01T00:19:00;7.32;;;3.08;;
52650;SDS011;38537;47.226;39.702;2022-07-01T00:21:27;6.97;;;2.60;;
52650;SDS011;38537;47.226;39.702;2022-07-01T00:23:55;13.57;;;3.05;;
52650;SDS011;38537;47.226;39.702;2022-07-01T00:26:22;8.25;;;2.95;;
52650;SDS011;38537;47.226;39.702;2022-07-01T00:28:49;7.22;;;2.90;;
52650;SDS011;38537;47.226;39.702;2022-07-01T00:31:17;5.18;;;2.53;;
52650;SDS011;38537;47.226;39.702;2022-07-01T00:33:44;7.53;;;2.92;;
52650;SDS011;38537;47.226;39.702;2022-07-01T00:36:12;6.22;;;2.58;;
52650;SDS011;38537;47.226;39.702;2022-07-01T00:38:39;7.32;;;2.63;;
52650;SDS011;38537;47.226;39.702;2022-07-01T00:41:06;9.05;;;2.72;;
52650;SDS011;38537;47.226;39.702;2022-07-01T00:43:36;8.20;;;2.90;;
52650;SDS011;38537;47.226;39.702;2022-07-01T00:46:22;6.20;;;2.58;;
52650;SDS011;38537;47.226;39.702;2022-07-01T00:48:54;9.90;;;3.15;;
52650;SDS011;38537;47.226;39.702;2022-07-01T00:51:23;5.43;;;2.80;;
52650;SDS011;38537;47.226;39.702;2022-07-01T00:53:50;10.50;;;3.10;;
52650;SDS011;38537;47.226;39.702;2022-07-01T00:56:19;6.18;;;3.00;;
52650;SDS011;38537;47.226;39.702;2022-07-01T00:58:46;8.50;;;3.15;;
52650;SDS011;38537;47.226;39.702;2022-07-01T01:01:13;11.10;;;3.30;;
52650;SDS011;38537;47.226;39.702;2022-07-01T01:03:41;7.88;;;2.92;;
52650;SDS011;38537;47.226;39.702;2022-07-01T01:06:09;6.75;;;2.90;;
52650;SDS011;38537;47.226;39.702;2022-07-01T01:08:37;9.05;;;3.10;;
52650;SDS011;38537;47.226;39.702;2022-07-01T01:11:04;7.20;;;2.97;;
52650;SDS011;38537;47.226;39.702;2022-07-01T01:13:33;9.18;;;2.90;;
52650;SDS011;38537;47.226;39.702;2022-07-01T01:16:00;6.95;;;2.88;;
52650;SDS011;38537;47.226;39.702;2022-07-01T01:18:28;5.68;;;2.90;;
52650;SDS011;38537;47.226;39.702;2022-07-01T01:20:55;11.88;;;2.75;;
52650;SDS011;38537;47.226;39.702;2022-07-01T01:23:22;10.52;;;3.20;;
52650;SDS011;38537;47.226;39.702;2022-07-01T01:25:50;8.10;;;3.10;;
52650;SDS011;38537;47.226;39.702;2022-07-01T01:28:17;8.35;;;3.03;;
52650;SDS011;38537;47.226;39.702;2022-07-01T01:30:45;6.18;;;2.75;;
52650;SDS011;38537;47.226;39.702;2022-07-01T01:33:12;9.07;;;3.40;;
52650;SDS011;38537;47.226;39.702;2022-07-01T01:35:39;7.35;;;3.38;;
52650;SDS011;38537;47.226;39.702;2022-07-01T01:38:07;11.23;;;3.40;;
52650;SDS011;38537;47.226;39.702;2022-07-01T01:40:35;9.95;;;3.50;;
52650;SDS011;38537;47.226;39.702;2022-07-01T01:43:03;12.00;;;3.22;;
52650;SDS011;38537;47.226;39.702;2022-07-01T01:45:30;13.30;;;3.33;;
52650;SDS011;38537;47.226;39.702;2022-07-01T01:47:58;10.02;;;3.58;;
52650;SDS011;38537;47.226;39.702;2022-07-01T01:50:25;8.25;;;3.50;;
52650;SDS011;38537;47.226;39.702;2022-07-01T01:52:52;6.32;;;3.33;;
52650;SDS011;38537;47.226;39.702;2022-07-01T01:55:19;13.77;;;3.60;;
52650;SDS011;38537;47.226;39.702;2022-07-01T01:57:47;12.40;;;3.75;;
52650;SDS011;38537;47.226;39.702;2022-07-01T02:00:15;7.07;;;3.88;;
52650;SDS011;38537;47.226;39.702;2022-07-01T02:02:42;9.25;;;3.88;;
52650;SDS011;38537;47.226;39.702;2022-07-01T02:05:10;14.55;;;4.47;;
52650;SDS011;38537;47.226;39.702;2022-07-01T02:07:39;12.38;;;4.05;;
52650;SDS011;38537;47.226;39.702;2022-07-01T02:10:07;13.95;;;4.47;;
52650;SDS011;38537;47.226;39.702;2022-07-01T02:12:35;10.05;;;3.97;;
52650;SDS011;38537;47.226;39.702;2022-07-01T02:15:03;13.02;;;4.13;;
52650;SDS011;38537;47.226;39.702;2022-07-01T02:17:31;10.70;;;3.70;;
52650;SDS011;38537;47.226;39.702;2022-07-01T02:19:58;11.18;;;3.78;;
52650;SDS011;38537;47.226;39.702;2022-07-01T02:22:25;9.50;;;3.28;;
52650;SDS011;38537;47.226;39.702;2022-07-01T02:24:52;7.88;;;3.03;;
52650;SDS011;38537;47.226;39.702;2022-07-01T02:27:20;13.55;;;3.60;;
52650;SDS011;38537;47.226;39.702;2022-07-01T02:29:47;9.93;;;3.50;;
52650;SDS011;38537;47.226;39.702;2022-07-01T02:32:14;8.18;;;3.10;;
52650;SDS011;38537;47.226;39.702;2022-07-01T02:34:41;6.65;;;3.00;;
52650;SDS011;38537;47.226;39.702;2022-07-01T02:37:09;8.75;;;3.25;;
52650;SDS011;38537;47.226;39.702;2022-07-01T02:39:36;7.13;;;3.28;;
52650;SDS011;38537;47.226;39.702;2022-07-01T02:42:03;8.82;;;2.90;;
52650;SDS011;38537;47.226;39.702;2022-07-01T02:44:49;6.85;;;3.45;;
52650;SDS011;38537;47.226;39.702;2022-07-01T02:47:16;7.07;;;2.90;;
52650;SDS011;38537;47.226;39.702;2022-07-01T02:49:44;7.82;;;3.20;;
52650;SDS011;38537;47.226;39.702;2022-07-01T02:52:11;6.50;;;2.90;;
52650;SDS011;38537;47.226;39.702;2022-07-01T02:54:38;6.93;;;3.28;;
52650;SDS011;38537;47.226;39.702;2022-07-01T02:57:07;8.45;;;3.13;;
52650;SDS011;38537;47.226;39.702;2022-07-01T02:59:34;10.38;;;3.80;;
52650;SDS011;38537;47.226;39.702;2022-07-01T03:02:01;7.43;;;3.25;;
52650;SDS011;38537;47.226;39.702;2022-07-01T03:04:29;9.90;;;3.45;;
52650;SDS011;38537;47.226;39.702;2022-07-01T03:06:57;8.75;;;3.40;;
52650;SDS011;38537;47.226;39.702;2022-07-01T03:09:24;7.03;;;3.67;;
52650;SDS011;38537;47.226;39.702;2022-07-01T03:11:51;9.35;;;3.70;;
52650;SDS011;38537;47.226;39.702;2022-07-01T03:14:19;11.07;;;3.33;;
52650;SDS011;38537;47.226;39.702;2022-07-01T03:16:46;7.38;;;3.20;;
52650;SDS011;38537;47.226;39.702;2022-07-01T03:19:14;8.25;;;3.50;;
52650;SDS011;38537;47.226;39.702;2022-07-01T03:21:41;6.93;;;3.17;;
52650;SDS011;38537;47.226;39.702;2022-07-01T03:24:09;8.48;;;3.42;;
52650;SDS011;38537;47.226;39.702;2022-07-01T03:26:36;9.70;;;3.38;;
52650;SDS011;38537;47.226;39.702;2022-07-01T03:29:04;9.38;;;3.47;;
52650;SDS011;38537;47.226;39.702;2022-07-01T03:31:31;15.90;;;3.70;;
52650;SDS011;38537;47.226;39.702;2022-07-01T03:33:59;9.07;;;3.50;;
52650;SDS011;38537;47.226;39.702;2022-07-01T03:36:26;15.40;;;3.40;;
52650;SDS011;38537;47.226;39.702;2022-07-01T03:38:53;13.10;;;3.53;;
52650;SDS011;38537;47.226;39.702;2022-07-01T03:41:20;10.73;;;3.50;;
52650;SDS011;38537;47.226;39.702;2022-07-01T03:43:48;16.40;;;3.60;;
52650;SDS011;38537;47.226;39.702;2022-07-01T03:46:15;5.15;;;3.00;;
52650;SDS011;38537;47.226;39.702;2022-07-01T03:48:42;6.97;;;3.30;;
52650;SDS011;38537;47.226;39.702;2022-07-01T03:51:09;14.27;;;3.58;;
52650;SDS011;38537;47.226;39.702;2022-07-01T03:53:37;13.90;;;4.40;;
52650;SDS011;38537;47.226;39.702;2022-07-01T03:56:23;16.30;;;4.57;;
52650;SDS011;38537;47.226;39.702;2022-07-01T03:58:50;12.13;;;3.50;;
52650;SDS011;38537;47.226;39.702;2022-07-01T04:01:17;10.82;;;3.50;;
52650;SDS011;38537;47.226;39.702;2022-07-01T04:03:44;9.15;;;3.40;;
52650;SDS011;38537;47.226;39.702;2022-07-01T04:06:12;12.85;;;3.65;;
52650;SDS011;38537;47.226;39.702;2022-07-01T04:08:39;11.13;;;3.90;;
52650;SDS011;38537;47.226;39.702;2022-07-01T04:11:09;10.60;;;3.53;;
52650;SDS011;38537;47.226;39.702;2022-07-01T04:13:36;12.15;;;4.18;;
52650;SDS011;38537;47.226;39.702;2022-07-01T04:16:04;10.35;;;3.85;;
52650;SDS011;38537;47.226;39.702;2022-07-01T04:18:32;9.30;;;3.63;;
52650;SDS011;38537;47.226;39.702;2022-07-01T04:21:00;12.48;;;3.50;;
52650;SDS011;38537;47.226;39.702;2022-07-01T04:23:45;11.07;;;3.33;;
52650;SDS011;38537;47.226;39.702;2022-07-01T04:26:13;11.98;;;4.10;;
52650;SDS011;38537;47.226;39.702;2022-07-01T04:29:00;11.10;;;3.58;;
52650;SDS011;38537;47.226;39.702;2022-07-01T04:31:27;11.50;;;3.42;;
52650;SDS011;38537;47.226;39.702;2022-07-01T04:33:55;11.98;;;3.65;;
52650;SDS011;38537;47.226;39.702;2022-07-01T04:36:22;15.85;;;3.85;;
52650;SDS011;38537;47.226;39.702;2022-07-01T04:38:49;5.50;;;3.05;;
52650;SDS011;38537;47.226;39.702;2022-07-01T04:41:17;9.85;;;3.60;;
52650;SDS011;38537;47.226;39.702;2022-07-01T04:44:03;6.05;;;3.20;;
52650;SDS011;38537;47.226;39.702;2022-07-01T04:46:31;9.10;;;3.90;;
52650;SDS011;38537;47.226;39.702;2022-07-01T04:48:58;8.77;;;3.67;;
52650;SDS011;38537;47.226;39.702;2022-07-01T04:51:26;9.85;;;4.10;;
52650;SDS011;38537;47.226;39.702;2022-07-01T04:53:53;8.85;;;4.65;;
52650;SDS011;38537;47.226;39.702;2022-07-01T04:56:21;10.57;;;4.70;;
52650;SDS011;38537;47.226;39.702;2022-07-01T04:58:48;11.57;;;5.15;;
52650;SDS011;38537;47.226;39.702;2022-07-01T05:01:15;12.27;;;4.80;;
52650;SDS011;38537;47.226;39.702;2022-07-01T05:03:43;8.23;;;4.60;;
52650;SDS011;38537;47.226;39.702;2022-07-01T05:06:10;8.88;;;4.30;;
52650;SDS011;38537;47.226;39.702;2022-07-01T05:08:38;11.07;;;4.95;;
52650;SDS011;38537;47.226;39.702;2022-07-01T05:11:05;5.88;;;3.72;;
52650;SDS011;38537;47.226;39.702;2022-07-01T05:13:33;8.35;;;3.90;;
52650;SDS011;38537;47.226;39.702;2022-07-01T05:16:00;8.25;;;4.03;;
52650;SDS011;38537;47.226;39.702;2022-07-01T05:18:29;9.50;;;3.83;;
52650;SDS011;38537;47.226;39.702;2022-07-01T05:21:15;8.30;;;4.03;;
52650;SDS011;38537;47.226;39.702;2022-07-01T05:24:01;11.15;;;3.83;;
52650;SDS011;38537;47.226;39.702;2022-07-01T05:26:28;8.40;;;3.95;;
52650;SDS011;38537;47.226;39.702;2022-07-01T05:28:56;11.48;;;4.20;;
52650;SDS011;38537;47.226;39.702;2022-07-01T05:31:23;8.55;;;3.58;;
52650;SDS011;38537;47.226;39.702;2022-07-01T05:33:50;13.00;;;4.72;;
52650;SDS011;38537;47.226;39.702;2022-07-01T05:36:18;6.88;;;3.97;;
52650;SDS011;38537;47.226;39.702;2022-07-01T05:38:45;13.68;;;4.00;;
52650;SDS011;38537;47.226;39.702;2022-07-01T05:41:13;10.63;;;4.43;;
52650;SDS011;38537;47.226;39.702;2022-07-01T05:43:40;14.15;;;5.30;;
52650;SDS011;38537;47.226;39.702;2022-07-01T05:46:08;11.07;;;4.15;;
52650;SDS011;38537;47.226;39.702;2022-07-01T05:48:36;13.10;;;4.35;;
52650;SDS011;38537;47.226;39.702;2022-07-01T05:51:03;16.08;;;4.72;;
52650;SDS011;38537;47.226;39.702;2022-07-01T05:53:31;12.15;;;4.72;;
52650;SDS011;38537;47.226;39.702;2022-07-01T05:55:58;23.38;;;5.15;;
52650;SDS011;38537;47.226;39.702;2022-07-01T05:58:25;14.25;;;4.60;;
52650;SDS011;38537;47.226;39.702;2022-07-01T06:00:52;13.45;;;4.50;;
52650;SDS011;38537;47.226;39.702;2022-07-01T06:03:28;12.98;;;4.97;;
52650;SDS011;38537;47.226;39.702;2022-07-01T06:05:55;5.82;;;2.60;;
52650;SDS011;38537;47.226;39.702;2022-07-01T06:08:22;7.20;;;2.00;;
52650;SDS011;38537;47.226;39.702;2022-07-01T06:10:50;5.53;;;2.47;;
52650;SDS011;38537;47.226;39.702;2022-07-01T06:13:17;4.78;;;2.85;;
52650;SDS011;38537;47.226;39.702;2022-07-01T06:15:44;3.38;;;2.35;;
52650;SDS011;38537;47.226;39.702;2022-07-01T06:18:12;4.88;;;2.22;;
52650;SDS011;38537;47.226;39.702;2022-07-01T06:20:40;5.10;;;2.60;;
52650;SDS011;38537;47.226;39.702;2022-07-01T06:23:07;4.53;;;2.00;;
52650;SDS011;38537;47.226;39.702;2022-07-01T06:25:34;3.97;;;2.78;;
52650;SDS011;38537;47.226;39.702;2022-07-01T06:28:01;8.52;;;2.58;;
52650;SDS011;38537;47.226;39.702;2022-07-01T06:30:29;3.70;;;2.30;;
52650;SDS011;38537;47.226;39.702;2022-07-01T06:32:56;2.60;;;2.40;;
52650;SDS011;38537;47.226;39.702;2022-07-01T06:35:23;3.30;;;2.28;;
52650;SDS011;38537;47.226;39.702;2022-07-01T06:37:50;4.28;;;2.20;;
52650;SDS011;38537;47.226;39.702;2022-07-01T06:40:24;5.40;;;2.40;;
52650;SDS011;38537;47.226;39.702;2022-07-01T06:42:51;5.45;;;2.30;;
52650;SDS011;38537;47.226;39.702;2022-07-01T06:45:19;5.70;;;1.90;;
52650;SDS011;38537;47.226;39.702;2022-07-01T06:47:47;4.40;;;1.88;;
52650;SDS011;38537;47.226;39.702;2022-07-01T06:50:14;2.40;;;2.00;;
52650;SDS011;38537;47.226;39.702;2022-07-01T06:52:41;4.70;;;2.00;;
52650;SDS011;38537;47.226;39.702;2022-07-01T06:55:08;6.60;;;2.13;;
52650;SDS011;38537;47.226;39.702;2022-07-01T06:57:36;4.13;;;2.08;;
52650;SDS011;38537;47.226;39.702;2022-07-01T07:00:03;6.53;;;2.00;;
52650;SDS011;38537;47.226;39.702;2022-07-01T07:02:31;4.88;;;1.83;;
52650;SDS011;38537;47.226;39.702;2022-07-01T07:04:58;3.28;;;1.73;;
52650;SDS011;38537;47.226;39.702;2022-07-01T07:07:29;2.38;;;1.90;;
52650;SDS011;38537;47.226;39.702;2022-07-01T07:09:57;4.22;;;1.92;;
52650;SDS011;38537;47.226;39.702;2022-07-01T07:12:24;6.80;;;1.90;;
52650;SDS011;38537;47.226;39.702;2022-07-01T07:14:52;3.53;;;1.80;;
52650;SDS011;38537;47.226;39.702;2022-07-01T07:17:19;3.03;;;1.88;;
52650;SDS011;38537;47.226;39.702;2022-07-01T07:19:47;4.97;;;2.00;;
52650;SDS011;38537;47.226;39.702;2022-07-01T07:22:14;2.97;;;1.90;;
52650;SDS011;38537;47.226;39.702;2022-07-01T07:24:41;2.88;;;1.90;;
52650;SDS011;38537;47.226;39.702;2022-07-01T07:27:09;4.82;;;1.98;;
52650;SDS011;38537;47.226;39.702;2022-07-01T07:29:37;3.10;;;1.80;;
52650;SDS011;38537;47.226;39.702;2022-07-01T07:32:04;2.85;;;1.70;;
52650;SDS011;38537;47.226;39.702;2022-07-01T07:34:31;4.38;;;2.13;;
52650;SDS011;38537;47.226;39.702;2022-07-01T07:36:58;3.08;;;1.63;;
52650;SDS011;38537;47.226;39.702;2022-07-01T07:39:26;3.03;;;1.70;;
52650;SDS011;38537;47.226;39.702;2022-07-01T07:41:58;4.88;;;2.00;;
52650;SDS011;38537;47.226;39.702;2022-07-01T07:44:26;2.38;;;1.88;;
52650;SDS011;38537;47.226;39.702;2022-07-01T07:46:54;3.03;;;1.80;;
52650;SDS011;38537;47.226;39.702;2022-07-01T07:49:24;3.13;;;1.70;;
52650;SDS011;38537;47.226;39.702;2022-07-01T07:51:52;6.95;;;2.00;;
52650;SDS011;38537;47.226;39.702;2022-07-01T07:54:19;5.30;;;1.95;;
52650;SDS011;38537;47.226;39.702;2022-07-01T07:56:47;5.35;;;1.75;;
52650;SDS011;38537;47.226;39.702;2022-07-01T07:59:14;3.03;;;1.80;;
52650;SDS011;38537;47.226;39.702;2022-07-01T08:01:42;3.88;;;1.92;;
52650;SDS011;38537;47.226;39.702;2022-07-01T08:04:09;3.50;;;1.80;;
52650;SDS011;38537;47.226;39.702;2022-07-01T08:06:37;3.75;;;1.90;;
52650;SDS011;38537;47.226;39.702;2022-07-01T08:09:04;2.53;;;1.65;;
52650;SDS011;38537;47.226;39.702;2022-07-01T08:11:33;6.00;;;2.03;;
52650;SDS011;38537;47.226;39.702;2022-07-01T08:14:00;2.63;;;1.83;;
52650;SDS011;38537;47.226;39.702;2022-07-01T08:16:27;3.78;;;2.20;;
52650;SDS011;38537;47.226;39.702;2022-07-01T08:18:55;3.97;;;2.10;;
52650;SDS011;38537;47.226;39.702;2022-07-01T08:21:22;4.20;;;2.20;;
52650;SDS011;38537;47.226;39.702;2022-07-01T08:23:50;6.07;;;2.25;;
52650;SDS011;38537;47.226;39.702;2022-07-01T08:26:17;3.72;;;2.30;;
52650;SDS011;38537;47.226;39.702;2022-07-01T08:28:44;6.82;;;2.47;;
52650;SDS011;38537;47.226;39.702;2022-07-01T08:31:13;6.10;;;2.50;;
52650;SDS011;38537;47.226;39.702;2022-07-01T08:33:41;4.72;;;2.38;;
52650;SDS011;38537;47.226;39.702;2022-07-01T08:36:08;5.35;;;2.50;;
52650;SDS011;38537;47.226;39.702;2022-07-01T08:38:36;4.53;;;2.72;;
52650;SDS011;38537;47.226;39.702;2022-07-01T08:41:05;4.80;;;2.53;;
52650;SDS011;38537;47.226;39.702;2022-07-01T08:43:33;5.78;;;2.58;;
52650;SDS011;38537;47.226;39.702;2022-07-01T08:46:01;3.33;;;2.60;;
52650;SDS011;38537;47.226;39.702;2022-07-01T08:48:29;4.65;;;2.53;;
52650;SDS011;38537;47.226;39.702;2022-07-01T08:50:57;3.83;;;2.53;;
52650;SDS011;38537;47.226;39.702;2022-07-01T08:53:25;5.60;;;2.40;;
52650;SDS011;38537;47.226;39.702;2022-07-01T08:55:52;2.95;;;2.25;;
52650;SDS011;38537;47.226;39.702;2022-07-01T08:58:38;3.17;;;2.30;;
52650;SDS011;38537;47.226;39.702;2022-07-01T09:01:14;2.97;;;2.00;;
52650;SDS011;38537;47.226;39.702;2022-07-01T09:03:48;4.00;;;2.25;;
52650;SDS011;38537;47.226;39.702;2022-07-01T09:08:46;5.95;;;2.50;;
52650;SDS011;38537;47.226;39.702;2022-07-01T09:11:18;4.32;;;2.10;;
52650;SDS011;38537;47.226;39.702;2022-07-01T09:14:08;2.92;;;2.10;;
52650;SDS011;38537;47.226;39.702;2022-07-01T09:16:43;3.97;;;2.22;;
52650;SDS011;38537;47.226;39.702;2022-07-01T09:19:13;5.93;;;2.30;;
52650;SDS011;38537;47.226;39.702;2022-07-01T09:21:42;2.80;;;2.20;;
52650;SDS011;38537;47.226;39.702;2022-07-01T09:27:11;3.35;;;2.00;;
52650;SDS011;38537;47.226;39.702;2022-07-01T09:29:42;3.70;;;2.17;;
52650;SDS011;38537;47.226;39.702;2022-07-01T09:32:11;6.60;;;2.55;;
52650;SDS011;38537;47.226;39.702;2022-07-01T09:34:41;4.82;;;2.20;;
52650;SDS011;38537;47.226;39.702;2022-07-01T09:37:17;4.30;;;2.28;;
52650;SDS011;38537;47.226;39.702;2022-07-01T09:39:47;2.85;;;2.00;;
52650;SDS011;38537;47.226;39.702;2022-07-01T09:42:16;3.95;;;2.45;;
52650;SDS011;38537;47.226;39.702;2022-07-01T09:45:05;4.20;;;2.47;;
52650;SDS011;38537;47.226;39.702;2022-07-01T09:47:35;3.90;;;2.58;;
52650;SDS011;38537;47.226;39.702;2022-07-01T09:50:03;5.68;;;2.90;;
52650;SDS011;38537;47.226;39.702;2022-07-01T09:52:32;6.28;;;2.83;;
52650;SDS011;38537;47.226;39.702;2022-07-01T09:55:02;5.25;;;2.60;;
52650;SDS011;38537;47.226;39.702;2022-07-01T09:57:30;4.55;;;2.97;;
52650;SDS011;38537;47.226;39.702;2022-07-01T09:59:58;5.47;;;3.00;;
52650;SDS011;38537;47.226;39.702;2022-07-01T10:02:25;5.88;;;3.42;;
52650;SDS011;38537;47.226;39.702;2022-07-01T10:04:59;4.28;;;3.45;;
52650;SDS011;38537;47.226;39.702;2022-07-01T10:07:36;10.93;;;3.65;;
52650;SDS011;38537;47.226;39.702;2022-07-01T10:13:10;5.47;;;3.20;;
52650;SDS011;38537;47.226;39.702;2022-07-01T10:15:40;4.10;;;2.97;;
52650;SDS011;38537;47.226;39.702;2022-07-01T10:18:21;6.82;;;3.00;;
52650;SDS011;38537;47.226;39.702;2022-07-01T10:20:50;7.13;;;3.28;;
52650;SDS011;38537;47.226;39.702;2022-07-01T10:23:21;10.57;;;3.72;;
52650;SDS011;38537;47.226;39.702;2022-07-01T10:25:51;8.98;;;3.72;;
52650;SDS011;38537;47.226;39.702;2022-07-01T10:33:38;7.07;;;3.90;;
52650;SDS011;38537;47.226;39.702;2022-07-01T10:36:12;5.53;;;3.58;;
52650;SDS011;38537;47.226;39.702;2022-07-01T10:41:37;5.97;;;4.00;;
52650;SDS011;38537;47.226;39.702;2022-07-01T10:44:39;5.45;;;3.65;;
52650;SDS011;38537;47.226;39.702;2022-07-01T10:47:31;4.30;;;3.45;;
52650;SDS011;38537;47.226;39.702;2022-07-01T10:50:00;5.13;;;3.08;;
52650;SDS011;38537;47.226;39.702;2022-07-01T10:52:31;6.22;;;3.10;;
52650;SDS011;38537;47.226;39.702;2022-07-01T10:55:00;7.40;;;3.50;;
52650;SDS011;38537;47.226;39.702;2022-07-01T11:02:35;4.38;;;2.90;;
52650;SDS011;38537;47.226;39.702;2022-07-01T11:05:04;6.75;;;3.15;;
52650;SDS011;38537;47.226;39.702;2022-07-01T11:07:35;4.40;;;3.20;;
52650;SDS011;38537;47.226;39.702;2022-07-01T11:10:07;4.57;;;2.50;;
52650;SDS011;38537;47.226;39.702;2022-07-01T11:12:37;3.65;;;2.50;;
52650;SDS011;38537;47.226;39.702;2022-07-01T11:15:04;5.68;;;2.72;;
52650;SDS011;38537;47.226;39.702;2022-07-01T11:17:33;4.05;;;2.72;;
52650;SDS011;38537;47.226;39.702;2022-07-01T11:20:01;5.05;;;2.90;;
52650;SDS011;38537;47.226;39.702;2022-07-01T11:22:33;5.15;;;3.00;;
52650;SDS011;38537;47.226;39.702;2022-07-01T11:25:05;6.93;;;3.40;;
52650;SDS011;38537;47.226;39.702;2022-07-01T11:27:36;10.35;;;5.93;;
52650;SDS011;38537;47.226;39.702;2022-07-01T11:30:08;8.38;;;4.03;;
52650;SDS011;38537;47.226;39.702;2022-07-01T11:32:50;6.18;;;3.72;;
52650;SDS011;38537;47.226;39.702;2022-07-01T11:35:25;5.15;;;2.90;;
52650;SDS011;38537;47.226;39.702;2022-07-01T11:38:17;6.13;;;2.75;;
52650;SDS011;38537;47.226;39.702;2022-07-01T11:41:25;5.22;;;2.65;;
52650;SDS011;38537;47.226;39.702;2022-07-01T11:43:52;5.35;;;2.60;;
52650;SDS011;38537;47.226;39.702;2022-07-01T11:46:20;8.02;;;2.72;;
52650;SDS011;38537;47.226;39.702;2022-07-01T11:48:49;3.75;;;2.50;;
52650;SDS011;38537;47.226;39.702;2022-07-01T11:51:19;6.22;;;2.90;;
52650;SDS011;38537;47.226;39.702;2022-07-01T11:53:51;5.85;;;2.58;;
52650;SDS011;38537;47.226;39.702;2022-07-01T11:56:34;2.88;;;2.60;;
52650;SDS011;38537;47.226;39.702;2022-07-01T11:59:05;8.30;;;2.70;;
52650;SDS011;38537;47.226;39.702;2022-07-01T12:01:33;4.18;;;2.38;;
52650;SDS011;38537;47.226;39.702;2022-07-01T12:04:03;6.80;;;2.40;;
52650;SDS011;38537;47.226;39.702;2022-07-01T12:06:33;8.98;;;2.72;;
52650;SDS011;38537;47.226;39.702;2022-07-01T12:09:04;4.85;;;2.60;;
52650;SDS011;38537;47.226;39.702;2022-07-01T12:11:32;3.40;;;2.70;;
52650;SDS011;38537;47.226;39.702;2022-07-01T12:14:05;4.47;;;2.90;;
52650;SDS011;38537;47.226;39.702;2022-07-01T12:16:41;8.65;;;2.70;;
52650;SDS011;38537;47.226;39.702;2022-07-01T12:19:09;5.28;;;2.78;;
52650;SDS011;38537;47.226;39.702;2022-07-01T12:24:18;7.50;;;3.08;;
52650;SDS011;38537;47.226;39.702;2022-07-01T12:27:10;6.47;;;2.97;;
52650;SDS011;38537;47.226;39.702;2022-07-01T12:32:04;4.15;;;2.83;;
52650;SDS011;38537;47.226;39.702;2022-07-01T12:37:10;5.07;;;2.70;;
52650;SDS011;38537;47.226;39.702;2022-07-01T12:39:53;7.40;;;3.10;;
52650;SDS011;38537;47.226;39.702;2022-07-01T12:42:23;4.55;;;3.50;;
52650;SDS011;38537;47.226;39.702;2022-07-01T12:45:01;3.78;;;3.10;;
52650;SDS011;38537;47.226;39.702;2022-07-01T12:47:37;5.38;;;2.90;;
52650;SDS011;38537;47.226;39.702;2022-07-01T12:50:17;6.35;;;3.50;;
52650;SDS011;38537;47.226;39.702;2022-07-01T12:53:11;4.18;;;3.30;;
52650;SDS011;38537;47.226;39.702;2022-07-01T12:55:40;6.13;;;3.67;;
52650;SDS011;38537;47.226;39.702;2022-07-01T12:58:10;9.40;;;3.75;;
52650;SDS011;38537;47.226;39.702;2022-07-01T13:00:39;6.05;;;3.75;;
52650;SDS011;38537;47.226;39.702;2022-07-01T13:03:07;4.57;;;3.35;;
52650;SDS011;38537;47.226;39.702;2022-07-01T13:05:36;8.00;;;3.63;;
52650;SDS011;38537;47.226;39.702;2022-07-01T13:08:06;8.13;;;3.53;;
52650;SDS011;38537;47.226;39.702;2022-07-01T13:10:35;8.43;;;3.80;;
52650;SDS011;38537;47.226;39.702;2022-07-01T13:13:04;7.88;;;3.60;;
52650;SDS011;38537;47.226;39.702;2022-07-01T13:15:31;6.15;;;3.60;;
52650;SDS011;38537;47.226;39.702;2022-07-01T13:17:59;8.02;;;3.67;;
52650;SDS011;38537;47.226;39.702;2022-07-01T13:20:27;5.60;;;3.92;;
52650;SDS011;38537;47.226;39.702;2022-07-01T13:22:54;7.20;;;3.72;;
52650;SDS011;38537;47.226;39.702;2022-07-01T13:25:22;7.35;;;3.75;;
52650;SDS011;38537;47.226;39.702;2022-07-01T13:27:49;7.20;;;3.95;;
52650;SDS011;38537;47.226;39.702;2022-07-01T13:30:18;6.80;;;4.53;;
52650;SDS011;38537;47.226;39.702;2022-07-01T13:32:46;8.50;;;4.32;;
52650;SDS011;38537;47.226;39.702;2022-07-01T13:35:13;8.68;;;4.13;;
52650;SDS011;38537;47.226;39.702;2022-07-01T13:37:42;9.52;;;4.38;;
52650;SDS011;38537;47.226;39.702;2022-07-01T13:40:09;10.10;;;4.40;;
52650;SDS011;38537;47.226;39.702;2022-07-01T13:42:37;8.27;;;4.75;;
52650;SDS011;38537;47.226;39.702;2022-07-01T13:45:04;7.75;;;4.82;;
52650;SDS011;38537;47.226;39.702;2022-07-01T13:47:32;9.70;;;4.60;;
52650;SDS011;38537;47.226;39.702;2022-07-01T13:50:00;6.70;;;4.45;;
52650;SDS011;38537;47.226;39.702;2022-07-01T13:52:29;7.22;;;4.50;;
52650;SDS011;38537;47.226;39.702;2022-07-01T13:54:57;5.55;;;4.25;;
52650;SDS011;38537;47.226;39.702;2022-07-01T13:57:25;5.63;;;4.10;;
52650;SDS011;38537;47.226;39.702;2022-07-01T13:59:53;10.15;;;5.10;;
52650;SDS011;38537;47.226;39.702;2022-07-01T14:02:22;5.82;;;4.43;;
52650;SDS011;38537;47.226;39.702;2022-07-01T14:04:50;23.73;;;5.00;;
52650;SDS011;38537;47.226;39.702;2022-07-01T14:07:18;5.50;;;4.28;;
52650;SDS011;38537;47.226;39.702;2022-07-01T14:09:45;11.68;;;4.70;;
52650;SDS011;38537;47.226;39.702;2022-07-01T14:12:14;6.15;;;4.00;;
52650;SDS011;38537;47.226;39.702;2022-07-01T14:14:56;6.75;;;4.40;;
52650;SDS011;38537;47.226;39.702;2022-07-01T14:17:25;11.07;;;4.20;;
52650;SDS011;38537;47.226;39.702;2022-07-01T14:19:52;8.13;;;4.40;;
52650;SDS011;38537;47.226;39.702;2022-07-01T14:22:22;7.72;;;3.60;;
52650;SDS011;38537;47.226;39.702;2022-07-01T14:24:49;5.72;;;3.63;;
52650;SDS011;38537;47.226;39.702;2022-07-01T14:27:16;3.97;;;3.25;;
52650;SDS011;38537;47.226;39.702;2022-07-01T14:29:44;5.57;;;3.20;;
52650;SDS011;38537;47.226;39.702;2022-07-01T14:32:11;6.63;;;3.85;;
52650;SDS011;38537;47.226;39.702;2022-07-01T14:34:39;5.30;;;4.25;;
52650;SDS011;38537;47.226;39.702;2022-07-01T14:37:07;6.38;;;4.38;;
52650;SDS011;38537;47.226;39.702;2022-07-01T14:39:34;6.43;;;4.03;;
52650;SDS011;38537;47.226;39.702;2022-07-01T14:42:02;7.13;;;4.50;;
52650;SDS011;38537;47.226;39.702;2022-07-01T14:44:29;9.02;;;4.53;;
52650;SDS011;38537;47.226;39.702;2022-07-01T14:46:56;9.50;;;4.80;;
52650;SDS011;38537;47.226;39.702;2022-07-01T14:49:27;10.82;;;4.40;;
52650;SDS011;38537;47.226;39.702;2022-07-01T14:51:57;7.63;;;5.00;;
52650;SDS011;38537;47.226;39.702;2022-07-01T14:54:24;6.53;;;4.90;;
52650;SDS011;38537;47.226;39.702;2022-07-01T14:56:51;7.82;;;4.97;;
52650;SDS011;38537;47.226;39.702;2022-07-01T14:59:18;7.43;;;4.45;;
52650;SDS011;38537;47.226;39.702;2022-07-01T15:01:46;7.90;;;4.60;;
52650;SDS011;38537;47.226;39.702;2022-07-01T15:04:13;6.43;;;4.00;;
52650;SDS011;38537;47.226;39.702;2022-07-01T15:06:40;7.88;;;4.22;;
52650;SDS011;38537;47.226;39.702;2022-07-01T15:09:08;11.20;;;4.43;;
52650;SDS011;38537;47.226;39.702;2022-07-01T15:11:35;7.93;;;4.30;;
52650;SDS011;38537;47.226;39.702;2022-07-01T15:14:02;8.00;;;4.47;;